sensor_id;sensor_type;location;lat;lon;timestamp;P1;durP1;ratioP1;P2;durP2;ratioP2
55827;SDS011;41758;51.992;5.890;2023-07-13T00:02:23;4.63;;;2.70;;
55827;SDS011;41758;51.992;5.890;2023-07-13T00:04:49;4.47;;;2.55;;
55827;SDS011;41758;51.992;5.890;2023-07-13T00:07:16;6.15;;;2.50;;
55827;SDS011;41758;51.992;5.890;2023-07-13T00:09:48;4.55;;;2.30;;
55827;SDS011;41758;51.992;5.890;2023-07-13T00:12:24;5.93;;;2.47;;
55827;SDS011;41758;51.992;5.890;2023-07-13T00:14:52;6.50;;;3.17;;
55827;SDS011;41758;51.992;5.890;2023-07-13T00:17:18;5.75;;;2.88;;
55827;SDS011;41758;51.992;5.890;2023-07-13T00:19:44;4.75;;;2.85;;
55827;SDS011;41758;51.992;5.890;2023-07-13T00:22:10;5.57;;;2.63;;
55827;SDS011;41758;51.992;5.890;2023-07-13T00:24:36;4.18;;;2.30;;
55827;SDS011;41758;51.992;5.890;2023-07-13T00:27:07;4.68;;;2.40;;
55827;SDS011;41758;51.992;5.890;2023-07-13T00:29:34;4.10;;;2.22;;
55827;SDS011;41758;51.992;5.890;2023-07-13T00:32:01;5.57;;;2.50;;
55827;SDS011;41758;51.992;5.890;2023-07-13T00:34:31;4.25;;;2.30;;
55827;SDS011;41758;51.992;5.890;2023-07-13T00:36:57;3.95;;;2.30;;
55827;SDS011;41758;51.992;5.890;2023-07-13T00:39:24;3.63;;;2.20;;
55827;SDS011;41758;51.992;5.890;2023-07-13T00:41:50;6.30;;;2.40;;
55827;SDS011;41758;51.992;5.890;2023-07-13T00:44:18;3.67;;;1.90;;
55827;SDS011;41758;51.992;5.890;2023-07-13T00:46:45;4.18;;;2.20;;
55827;SDS011;41758;51.992;5.890;2023-07-13T00:49:12;4.13;;;2.10;;
55827;SDS011;41758;51.992;5.890;2023-07-13T00:54:13;4.35;;;2.00;;
55827;SDS011;41758;51.992;5.890;2023-07-13T00:56:42;3.90;;;2.17;;
55827;SDS011;41758;51.992;5.890;2023-07-13T00:59:10;4.40;;;2.00;;
55827;SDS011;41758;51.992;5.890;2023-07-13T01:01:38;3.50;;;1.88;;
55827;SDS011;41758;51.992;5.890;2023-07-13T01:04:05;3.90;;;2.05;;
55827;SDS011;41758;51.992;5.890;2023-07-13T01:06:36;3.60;;;1.77;;
55827;SDS011;41758;51.992;5.890;2023-07-13T01:09:04;3.95;;;1.90;;
55827;SDS011;41758;51.992;5.890;2023-07-13T01:11:32;5.38;;;2.00;;
55827;SDS011;41758;51.992;5.890;2023-07-13T01:14:00;3.72;;;1.80;;
55827;SDS011;41758;51.992;5.890;2023-07-13T01:16:27;2.78;;;1.60;;
55827;SDS011;41758;51.992;5.890;2023-07-13T01:18:55;4.18;;;2.00;;
55827;SDS011;41758;51.992;5.890;2023-07-13T01:21:23;3.05;;;1.92;;
55827;SDS011;41758;51.992;5.890;2023-07-13T01:23:50;4.00;;;2.00;;
55827;SDS011;41758;51.992;5.890;2023-07-13T01:26:15;4.05;;;2.08;;
55827;SDS011;41758;51.992;5.890;2023-07-13T01:28:41;4.55;;;2.15;;
55827;SDS011;41758;51.992;5.890;2023-07-13T01:31:07;5.78;;;2.50;;
55827;SDS011;41758;51.992;5.890;2023-07-13T01:33:36;3.90;;;2.17;;
55827;SDS011;41758;51.992;5.890;2023-07-13T01:36:03;3.78;;;1.92;;
55827;SDS011;41758;51.992;5.890;2023-07-13T01:38:29;3.20;;;1.70;;
55827;SDS011;41758;51.992;5.890;2023-07-13T01:40:54;4.32;;;1.90;;
55827;SDS011;41758;51.992;5.890;2023-07-13T01:43:23;3.05;;;1.90;;
55827;SDS011;41758;51.992;5.890;2023-07-13T01:45:49;4.10;;;2.00;;
55827;SDS011;41758;51.992;5.890;2023-07-13T01:48:15;2.40;;;1.52;;
55827;SDS011;41758;51.992;5.890;2023-07-13T01:50:40;4.68;;;2.50;;
55827;SDS011;41758;51.992;5.890;2023-07-13T01:53:06;4.25;;;2.00;;
55827;SDS011;41758;51.992;5.890;2023-07-13T01:55:33;4.80;;;2.22;;
55827;SDS011;41758;51.992;5.890;2023-07-13T01:58:01;4.43;;;2.20;;
55827;SDS011;41758;51.992;5.890;2023-07-13T02:00:28;4.15;;;2.53;;
55827;SDS011;41758;51.992;5.890;2023-07-13T02:02:54;4.57;;;2.72;;
55827;SDS011;41758;51.992;5.890;2023-07-13T02:05:20;5.30;;;2.90;;
55827;SDS011;41758;51.992;5.890;2023-07-13T02:07:46;5.65;;;2.90;;
55827;SDS011;41758;51.992;5.890;2023-07-13T02:10:12;6.05;;;3.10;;
55827;SDS011;41758;51.992;5.890;2023-07-13T02:12:38;4.88;;;2.63;;
55827;SDS011;41758;51.992;5.890;2023-07-13T02:15:07;4.75;;;2.50;;
55827;SDS011;41758;51.992;5.890;2023-07-13T02:17:34;5.20;;;3.03;;
55827;SDS011;41758;51.992;5.890;2023-07-13T02:20:01;5.93;;;2.80;;
55827;SDS011;41758;51.992;5.890;2023-07-13T02:22:28;5.03;;;2.80;;
55827;SDS011;41758;51.992;5.890;2023-07-13T02:24:56;4.53;;;2.60;;
55827;SDS011;41758;51.992;5.890;2023-07-13T02:27:22;5.15;;;2.63;;
55827;SDS011;41758;51.992;5.890;2023-07-13T02:29:49;4.50;;;2.60;;
55827;SDS011;41758;51.992;5.890;2023-07-13T02:32:16;5.93;;;3.10;;
55827;SDS011;41758;51.992;5.890;2023-07-13T02:34:43;5.20;;;3.20;;
55827;SDS011;41758;51.992;5.890;2023-07-13T02:37:09;4.45;;;2.78;;
55827;SDS011;41758;51.992;5.890;2023-07-13T02:39:35;5.65;;;3.03;;
55827;SDS011;41758;51.992;5.890;2023-07-13T02:42:02;3.92;;;2.65;;
55827;SDS011;41758;51.992;5.890;2023-07-13T02:44:28;6.95;;;3.30;;
55827;SDS011;41758;51.992;5.890;2023-07-13T02:46:55;5.13;;;2.70;;
55827;SDS011;41758;51.992;5.890;2023-07-13T02:49:20;5.18;;;3.20;;
55827;SDS011;41758;51.992;5.890;2023-07-13T02:51:46;5.97;;;3.00;;
55827;SDS011;41758;51.992;5.890;2023-07-13T02:54:12;6.43;;;3.30;;
55827;SDS011;41758;51.992;5.890;2023-07-13T02:56:39;5.78;;;3.10;;
55827;SDS011;41758;51.992;5.890;2023-07-13T02:59:06;6.38;;;3.15;;
55827;SDS011;41758;51.992;5.890;2023-07-13T03:01:32;5.65;;;3.08;;
55827;SDS011;41758;51.992;5.890;2023-07-13T03:04:00;5.47;;;3.30;;
55827;SDS011;41758;51.992;5.890;2023-07-13T03:06:26;7.80;;;3.25;;
55827;SDS011;41758;51.992;5.890;2023-07-13T03:08:55;6.15;;;3.60;;
55827;SDS011;41758;51.992;5.890;2023-07-13T03:11:22;6.03;;;3.35;;
55827;SDS011;41758;51.992;5.890;2023-07-13T03:13:55;5.82;;;3.17;;
55827;SDS011;41758;51.992;5.890;2023-07-13T03:16:21;4.90;;;3.15;;
55827;SDS011;41758;51.992;5.890;2023-07-13T03:18:50;5.60;;;3.17;;
55827;SDS011;41758;51.992;5.890;2023-07-13T03:21:16;5.38;;;3.20;;
55827;SDS011;41758;51.992;5.890;2023-07-13T03:23:42;5.72;;;3.55;;
55827;SDS011;41758;51.992;5.890;2023-07-13T03:26:09;6.45;;;3.70;;
55827;SDS011;41758;51.992;5.890;2023-07-13T03:28:41;8.25;;;4.30;;
55827;SDS011;41758;51.992;5.890;2023-07-13T03:31:12;9.68;;;4.60;;
55827;SDS011;41758;51.992;5.890;2023-07-13T03:33:44;8.32;;;4.90;;
55827;SDS011;41758;51.992;5.890;2023-07-13T03:36:19;6.97;;;4.22;;
55827;SDS011;41758;51.992;5.890;2023-07-13T03:38:50;6.65;;;4.50;;
55827;SDS011;41758;51.992;5.890;2023-07-13T03:41:24;7.88;;;4.35;;
55827;SDS011;41758;51.992;5.890;2023-07-13T03:43:52;7.88;;;4.50;;
55827;SDS011;41758;51.992;5.890;2023-07-13T03:46:20;8.98;;;5.07;;
55827;SDS011;41758;51.992;5.890;2023-07-13T03:48:46;7.75;;;4.50;;
55827;SDS011;41758;51.992;5.890;2023-07-13T03:51:13;6.60;;;3.83;;
55827;SDS011;41758;51.992;5.890;2023-07-13T03:53:41;6.68;;;3.85;;
55827;SDS011;41758;51.992;5.890;2023-07-13T03:56:08;6.65;;;4.00;;
55827;SDS011;41758;51.992;5.890;2023-07-13T03:58:36;6.32;;;3.67;;
55827;SDS011;41758;51.992;5.890;2023-07-13T04:01:10;6.00;;;3.80;;
55827;SDS011;41758;51.992;5.890;2023-07-13T04:03:37;8.55;;;4.38;;
55827;SDS011;41758;51.992;5.890;2023-07-13T04:06:05;8.25;;;4.88;;
55827;SDS011;41758;51.992;5.890;2023-07-13T04:08:33;7.93;;;4.35;;
55827;SDS011;41758;51.992;5.890;2023-07-13T04:11:01;9.20;;;4.57;;
55827;SDS011;41758;51.992;5.890;2023-07-13T04:13:28;6.22;;;3.90;;
55827;SDS011;41758;51.992;5.890;2023-07-13T04:15:53;6.10;;;4.05;;
55827;SDS011;41758;51.992;5.890;2023-07-13T04:18:19;6.88;;;4.40;;
55827;SDS011;41758;51.992;5.890;2023-07-13T04:20:46;6.95;;;4.28;;
55827;SDS011;41758;51.992;5.890;2023-07-13T04:23:13;7.03;;;4.07;;
55827;SDS011;41758;51.992;5.890;2023-07-13T04:25:39;6.63;;;3.72;;
55827;SDS011;41758;51.992;5.890;2023-07-13T04:28:08;6.05;;;3.90;;
55827;SDS011;41758;51.992;5.890;2023-07-13T04:30:34;6.13;;;4.07;;
55827;SDS011;41758;51.992;5.890;2023-07-13T04:33:00;8.25;;;5.05;;
55827;SDS011;41758;51.992;5.890;2023-07-13T04:35:25;8.45;;;4.82;;
55827;SDS011;41758;51.992;5.890;2023-07-13T04:37:51;9.57;;;5.13;;
55827;SDS011;41758;51.992;5.890;2023-07-13T04:40:18;11.48;;;6.45;;
55827;SDS011;41758;51.992;5.890;2023-07-13T04:42:44;12.15;;;6.53;;
55827;SDS011;41758;51.992;5.890;2023-07-13T04:45:11;14.05;;;7.03;;
55827;SDS011;41758;51.992;5.890;2023-07-13T04:47:38;13.93;;;7.07;;
55827;SDS011;41758;51.992;5.890;2023-07-13T04:50:04;12.07;;;6.60;;
55827;SDS011;41758;51.992;5.890;2023-07-13T04:52:30;7.78;;;5.30;;
55827;SDS011;41758;51.992;5.890;2023-07-13T04:54:55;11.35;;;6.90;;
55827;SDS011;41758;51.992;5.890;2023-07-13T04:57:21;12.23;;;7.13;;
55827;SDS011;41758;51.992;5.890;2023-07-13T04:59:47;9.63;;;6.25;;
55827;SDS011;41758;51.992;5.890;2023-07-13T05:02:13;10.10;;;6.57;;
55827;SDS011;41758;51.992;5.890;2023-07-13T05:04:38;9.65;;;5.65;;
55827;SDS011;41758;51.992;5.890;2023-07-13T05:07:05;14.13;;;7.15;;
55827;SDS011;41758;51.992;5.890;2023-07-13T05:09:31;14.23;;;7.00;;
55827;SDS011;41758;51.992;5.890;2023-07-13T05:11:57;11.30;;;7.70;;
55827;SDS011;41758;51.992;5.890;2023-07-13T05:14:23;16.15;;;8.35;;
55827;SDS011;41758;51.992;5.890;2023-07-13T05:16:48;14.73;;;7.53;;
55827;SDS011;41758;51.992;5.890;2023-07-13T05:19:14;8.73;;;6.63;;
55827;SDS011;41758;51.992;5.890;2023-07-13T05:21:40;10.43;;;6.85;;
55827;SDS011;41758;51.992;5.890;2023-07-13T05:24:06;12.98;;;8.43;;
55827;SDS011;41758;51.992;5.890;2023-07-13T05:26:32;12.13;;;7.47;;
55827;SDS011;41758;51.992;5.890;2023-07-13T05:28:57;11.75;;;7.55;;
55827;SDS011;41758;51.992;5.890;2023-07-13T05:31:23;13.35;;;8.18;;
55827;SDS011;41758;51.992;5.890;2023-07-13T05:33:49;16.92;;;9.40;;
55827;SDS011;41758;51.992;5.890;2023-07-13T05:36:15;15.10;;;8.85;;
55827;SDS011;41758;51.992;5.890;2023-07-13T05:38:40;12.63;;;8.13;;
55827;SDS011;41758;51.992;5.890;2023-07-13T05:41:06;16.83;;;9.07;;
55827;SDS011;41758;51.992;5.890;2023-07-13T05:43:32;14.88;;;8.27;;
55827;SDS011;41758;51.992;5.890;2023-07-13T05:45:59;12.60;;;8.00;;
55827;SDS011;41758;51.992;5.890;2023-07-13T05:48:24;12.20;;;7.57;;
55827;SDS011;41758;51.992;5.890;2023-07-13T05:50:50;15.73;;;10.07;;
55827;SDS011;41758;51.992;5.890;2023-07-13T05:53:16;17.35;;;10.65;;
55827;SDS011;41758;51.992;5.890;2023-07-13T05:55:42;16.15;;;10.52;;
55827;SDS011;41758;51.992;5.890;2023-07-13T05:58:08;15.90;;;10.98;;
55827;SDS011;41758;51.992;5.890;2023-07-13T06:00:34;15.07;;;10.07;;
55827;SDS011;41758;51.992;5.890;2023-07-13T06:03:00;17.08;;;11.02;;
55827;SDS011;41758;51.992;5.890;2023-07-13T06:05:26;18.63;;;11.93;;
55827;SDS011;41758;51.992;5.890;2023-07-13T06:07:53;19.73;;;13.05;;
55827;SDS011;41758;51.992;5.890;2023-07-13T06:10:19;14.20;;;11.35;;
55827;SDS011;41758;51.992;5.890;2023-07-13T06:12:44;16.55;;;11.50;;
55827;SDS011;41758;51.992;5.890;2023-07-13T06:15:11;17.38;;;12.00;;
55827;SDS011;41758;51.992;5.890;2023-07-13T06:17:46;20.02;;;13.68;;
55827;SDS011;41758;51.992;5.890;2023-07-13T06:20:12;19.15;;;12.77;;
55827;SDS011;41758;51.992;5.890;2023-07-13T06:22:38;19.13;;;14.40;;
55827;SDS011;41758;51.992;5.890;2023-07-13T06:25:04;24.05;;;17.15;;
55827;SDS011;41758;51.992;5.890;2023-07-13T06:27:30;24.42;;;16.55;;
55827;SDS011;41758;51.992;5.890;2023-07-13T06:29:55;16.13;;;14.02;;
55827;SDS011;41758;51.992;5.890;2023-07-13T06:32:21;22.85;;;16.42;;
55827;SDS011;41758;51.992;5.890;2023-07-13T06:34:47;25.77;;;16.95;;
55827;SDS011;41758;51.992;5.890;2023-07-13T06:37:13;25.00;;;17.98;;
55827;SDS011;41758;51.992;5.890;2023-07-13T06:39:38;18.42;;;16.42;;
55827;SDS011;41758;51.992;5.890;2023-07-13T06:42:05;23.23;;;16.30;;
55827;SDS011;41758;51.992;5.890;2023-07-13T06:44:31;23.00;;;17.33;;
55827;SDS011;41758;51.992;5.890;2023-07-13T06:46:56;18.88;;;16.17;;
55827;SDS011;41758;51.992;5.890;2023-07-13T06:49:22;17.38;;;15.57;;
55827;SDS011;41758;51.992;5.890;2023-07-13T06:51:48;19.02;;;14.55;;
55827;SDS011;41758;51.992;5.890;2023-07-13T06:54:14;25.55;;;20.55;;
55827;SDS011;41758;51.992;5.890;2023-07-13T06:56:40;31.27;;;22.13;;
55827;SDS011;41758;51.992;5.890;2023-07-13T06:59:05;28.17;;;21.50;;
55827;SDS011;41758;51.992;5.890;2023-07-13T07:01:31;25.95;;;21.48;;
55827;SDS011;41758;51.992;5.890;2023-07-13T07:03:57;28.98;;;25.40;;
55827;SDS011;41758;51.992;5.890;2023-07-13T07:06:23;27.17;;;22.65;;
55827;SDS011;41758;51.992;5.890;2023-07-13T07:08:49;22.05;;;18.73;;
55827;SDS011;41758;51.992;5.890;2023-07-13T07:11:17;25.08;;;19.90;;
55827;SDS011;41758;51.992;5.890;2023-07-13T07:13:45;26.05;;;21.20;;
55827;SDS011;41758;51.992;5.890;2023-07-13T07:16:10;25.83;;;21.35;;
55827;SDS011;41758;51.992;5.890;2023-07-13T07:18:36;32.65;;;22.00;;
55827;SDS011;41758;51.992;5.890;2023-07-13T07:21:02;30.77;;;20.15;;
55827;SDS011;41758;51.992;5.890;2023-07-13T07:23:28;29.77;;;21.58;;
55827;SDS011;41758;51.992;5.890;2023-07-13T07:25:54;25.05;;;18.30;;
55827;SDS011;41758;51.992;5.890;2023-07-13T07:28:20;26.05;;;20.33;;
55827;SDS011;41758;51.992;5.890;2023-07-13T07:30:46;28.85;;;20.35;;
55827;SDS011;41758;51.992;5.890;2023-07-13T07:33:12;23.80;;;19.30;;
55827;SDS011;41758;51.992;5.890;2023-07-13T07:35:38;20.75;;;17.98;;
55827;SDS011;41758;51.992;5.890;2023-07-13T07:38:04;25.85;;;21.30;;
55827;SDS011;41758;51.992;5.890;2023-07-13T07:40:30;30.98;;;22.67;;
55827;SDS011;41758;51.992;5.890;2023-07-13T07:42:56;29.25;;;21.42;;
55827;SDS011;41758;51.992;5.890;2023-07-13T07:45:23;26.23;;;20.42;;
55827;SDS011;41758;51.992;5.890;2023-07-13T07:47:49;26.92;;;21.85;;
55827;SDS011;41758;51.992;5.890;2023-07-13T07:50:15;26.58;;;21.08;;
55827;SDS011;41758;51.992;5.890;2023-07-13T07:52:41;27.77;;;21.48;;
55827;SDS011;41758;51.992;5.890;2023-07-13T07:55:09;23.95;;;19.92;;
55827;SDS011;41758;51.992;5.890;2023-07-13T07:57:35;19.85;;;17.85;;
55827;SDS011;41758;51.992;5.890;2023-07-13T08:00:01;20.40;;;17.20;;
55827;SDS011;41758;51.992;5.890;2023-07-13T08:02:26;22.13;;;19.20;;
55827;SDS011;41758;51.992;5.890;2023-07-13T08:04:52;22.88;;;19.48;;
55827;SDS011;41758;51.992;5.890;2023-07-13T08:07:18;19.15;;;17.10;;
55827;SDS011;41758;51.992;5.890;2023-07-13T08:09:44;20.83;;;17.92;;
55827;SDS011;41758;51.992;5.890;2023-07-13T08:12:10;20.52;;;18.33;;
55827;SDS011;41758;51.992;5.890;2023-07-13T08:14:35;22.95;;;20.00;;
55827;SDS011;41758;51.992;5.890;2023-07-13T08:17:01;30.38;;;22.73;;
55827;SDS011;41758;51.992;5.890;2023-07-13T08:19:27;29.17;;;22.52;;
55827;SDS011;41758;51.992;5.890;2023-07-13T08:21:53;25.60;;;21.48;;
55827;SDS011;41758;51.992;5.890;2023-07-13T08:24:21;23.60;;;20.38;;
55827;SDS011;41758;51.992;5.890;2023-07-13T08:26:48;26.42;;;20.48;;
55827;SDS011;41758;51.992;5.890;2023-07-13T08:29:13;19.52;;;17.52;;
55827;SDS011;41758;51.992;5.890;2023-07-13T08:31:39;23.25;;;20.27;;
55827;SDS011;41758;51.992;5.890;2023-07-13T08:34:05;24.67;;;21.65;;
55827;SDS011;41758;51.992;5.890;2023-07-13T08:36:31;27.17;;;21.40;;
55827;SDS011;41758;51.992;5.890;2023-07-13T08:38:56;24.63;;;20.30;;
55827;SDS011;41758;51.992;5.890;2023-07-13T08:41:23;27.42;;;20.98;;
55827;SDS011;41758;51.992;5.890;2023-07-13T08:43:49;23.13;;;18.92;;
55827;SDS011;41758;51.992;5.890;2023-07-13T08:46:26;19.15;;;16.20;;
55827;SDS011;41758;51.992;5.890;2023-07-13T08:49:00;23.08;;;18.00;;
55827;SDS011;41758;51.992;5.890;2023-07-13T08:51:42;18.40;;;16.40;;
55827;SDS011;41758;51.992;5.890;2023-07-13T08:54:21;18.63;;;16.65;;
55827;SDS011;41758;51.992;5.890;2023-07-13T08:57:00;16.95;;;15.25;;
55827;SDS011;41758;51.992;5.890;2023-07-13T08:59:39;19.23;;;16.75;;
55827;SDS011;41758;51.992;5.890;2023-07-13T09:05:28;16.58;;;14.65;;
55827;SDS011;41758;51.992;5.890;2023-07-13T09:08:09;19.92;;;15.95;;
55827;SDS011;41758;51.992;5.890;2023-07-13T09:11:40;22.50;;;15.35;;
55827;SDS011;41758;51.992;5.890;2023-07-13T09:17:00;20.65;;;16.02;;
55827;SDS011;41758;51.992;5.890;2023-07-13T09:19:30;16.10;;;14.40;;
55827;SDS011;41758;51.992;5.890;2023-07-13T09:21:58;17.50;;;14.75;;
55827;SDS011;41758;51.992;5.890;2023-07-13T09:27:15;16.38;;;12.18;;
55827;SDS011;41758;51.992;5.890;2023-07-13T09:29:47;13.82;;;11.10;;
55827;SDS011;41758;51.992;5.890;2023-07-13T09:32:17;12.55;;;10.40;;
55827;SDS011;41758;51.992;5.890;2023-07-13T09:34:52;15.07;;;11.32;;
55827;SDS011;41758;51.992;5.890;2023-07-13T09:37:24;11.18;;;9.38;;
55827;SDS011;41758;51.992;5.890;2023-07-13T09:39:55;10.48;;;9.23;;
55827;SDS011;41758;51.992;5.890;2023-07-13T09:42:23;14.18;;;9.10;;
55827;SDS011;41758;51.992;5.890;2023-07-13T09:49:58;7.03;;;5.60;;
55827;SDS011;41758;51.992;5.890;2023-07-13T09:52:26;7.97;;;5.50;;
55827;SDS011;41758;51.992;5.890;2023-07-13T09:54:54;8.18;;;6.10;;
55827;SDS011;41758;51.992;5.890;2023-07-13T09:57:27;8.93;;;6.68;;
55827;SDS011;41758;51.992;5.890;2023-07-13T09:59:54;13.63;;;8.27;;
55827;SDS011;41758;51.992;5.890;2023-07-13T10:07:28;12.25;;;8.43;;
55827;SDS011;41758;51.992;5.890;2023-07-13T10:09:55;9.27;;;8.00;;
55827;SDS011;41758;51.992;5.890;2023-07-13T10:12:23;10.38;;;9.02;;
55827;SDS011;41758;51.992;5.890;2023-07-13T10:15:00;14.80;;;11.20;;
55827;SDS011;41758;51.992;5.890;2023-07-13T10:17:30;12.93;;;10.35;;
55827;SDS011;41758;51.992;5.890;2023-07-13T10:20:04;18.42;;;12.60;;
55827;SDS011;41758;51.992;5.890;2023-07-13T10:22:44;14.93;;;11.90;;
55827;SDS011;41758;51.992;5.890;2023-07-13T10:25:17;14.18;;;11.60;;
55827;SDS011;41758;51.992;5.890;2023-07-13T10:27:50;13.63;;;11.07;;
55827;SDS011;41758;51.992;5.890;2023-07-13T10:32:53;14.00;;;11.13;;
55827;SDS011;41758;51.992;5.890;2023-07-13T10:35:20;11.77;;;10.57;;
55827;SDS011;41758;51.992;5.890;2023-07-13T10:40:41;12.27;;;8.75;;
55827;SDS011;41758;51.992;5.890;2023-07-13T10:43:15;11.52;;;8.52;;
55827;SDS011;41758;51.992;5.890;2023-07-13T10:45:49;11.25;;;8.50;;
55827;SDS011;41758;51.992;5.890;2023-07-13T10:48:16;10.35;;;8.07;;
55827;SDS011;41758;51.992;5.890;2023-07-13T10:50:44;12.27;;;8.95;;
55827;SDS011;41758;51.992;5.890;2023-07-13T10:53:21;14.05;;;10.65;;
55827;SDS011;41758;51.992;5.890;2023-07-13T10:58:22;11.57;;;10.38;;
55827;SDS011;41758;51.992;5.890;2023-07-13T11:01:00;14.65;;;11.68;;
55827;SDS011;41758;51.992;5.890;2023-07-13T11:03:36;10.90;;;9.80;;
55827;SDS011;41758;51.992;5.890;2023-07-13T11:06:13;11.40;;;9.55;;
55827;SDS011;41758;51.992;5.890;2023-07-13T11:18:46;11.43;;;8.45;;
55827;SDS011;41758;51.992;5.890;2023-07-13T11:21:15;9.55;;;7.95;;
55827;SDS011;41758;51.992;5.890;2023-07-13T11:23:43;7.13;;;6.03;;
55827;SDS011;41758;51.992;5.890;2023-07-13T11:29:12;8.02;;;5.70;;
55827;SDS011;41758;51.992;5.890;2023-07-13T11:31:40;7.93;;;5.80;;
55827;SDS011;41758;51.992;5.890;2023-07-13T11:34:12;7.32;;;5.00;;
55827;SDS011;41758;51.992;5.890;2023-07-13T11:36:42;9.18;;;5.15;;
55827;SDS011;41758;51.992;5.890;2023-07-13T11:39:29;8.55;;;5.07;;
55827;SDS011;41758;51.992;5.890;2023-07-13T11:42:02;7.75;;;4.80;;
55827;SDS011;41758;51.992;5.890;2023-07-13T11:44:31;5.57;;;4.25;;
55827;SDS011;41758;51.992;5.890;2023-07-13T11:47:00;6.07;;;3.63;;
55827;SDS011;41758;51.992;5.890;2023-07-13T11:49:44;7.05;;;4.15;;
55827;SDS011;41758;51.992;5.890;2023-07-13T11:52:14;6.53;;;4.43;;
55827;SDS011;41758;51.992;5.890;2023-07-13T11:54:49;6.90;;;3.72;;
55827;SDS011;41758;51.992;5.890;2023-07-13T11:59:59;6.82;;;3.72;;
55827;SDS011;41758;51.992;5.890;2023-07-13T12:02:37;6.88;;;4.75;;
55827;SDS011;41758;51.992;5.890;2023-07-13T12:05:06;7.07;;;3.95;;
55827;SDS011;41758;51.992;5.890;2023-07-13T12:07:35;8.65;;;4.70;;
55827;SDS011;41758;51.992;5.890;2023-07-13T12:10:24;7.85;;;4.22;;
55827;SDS011;41758;51.992;5.890;2023-07-13T12:12:58;6.07;;;4.20;;
55827;SDS011;41758;51.992;5.890;2023-07-13T12:18:22;7.45;;;4.95;;
55827;SDS011;41758;51.992;5.890;2023-07-13T12:20:55;7.82;;;5.57;;
55827;SDS011;41758;51.992;5.890;2023-07-13T12:23:25;10.07;;;5.63;;
55827;SDS011;41758;51.992;5.890;2023-07-13T12:25:55;7.47;;;5.18;;
55827;SDS011;41758;51.992;5.890;2023-07-13T12:28:30;7.90;;;5.10;;
55827;SDS011;41758;51.992;5.890;2023-07-13T12:33:27;9.48;;;5.20;;
55827;SDS011;41758;51.992;5.890;2023-07-13T12:35:54;6.68;;;4.35;;
55827;SDS011;41758;51.992;5.890;2023-07-13T12:38:21;7.30;;;4.10;;
55827;SDS011;41758;51.992;5.890;2023-07-13T12:40:49;9.05;;;4.25;;
55827;SDS011;41758;51.992;5.890;2023-07-13T12:43:16;6.57;;;4.55;;
55827;SDS011;41758;51.992;5.890;2023-07-13T12:45:54;8.23;;;4.53;;
55827;SDS011;41758;51.992;5.890;2023-07-13T12:48:21;8.10;;;4.75;;
55827;SDS011;41758;51.992;5.890;2023-07-13T12:50:48;7.32;;;4.00;;
55827;SDS011;41758;51.992;5.890;2023-07-13T12:53:22;7.38;;;3.88;;
55827;SDS011;41758;51.992;5.890;2023-07-13T12:55:54;6.90;;;4.10;;
55827;SDS011;41758;51.992;5.890;2023-07-13T12:58:26;5.40;;;4.07;;
55827;SDS011;41758;51.992;5.890;2023-07-13T13:01:14;6.70;;;4.18;;
55827;SDS011;41758;51.992;5.890;2023-07-13T13:03:44;6.95;;;4.18;;
55827;SDS011;41758;51.992;5.890;2023-07-13T13:08:48;7.65;;;4.75;;
55827;SDS011;41758;51.992;5.890;2023-07-13T13:11:24;6.65;;;4.53;;
55827;SDS011;41758;51.992;5.890;2023-07-13T13:13:51;7.45;;;5.10;;
55827;SDS011;41758;51.992;5.890;2023-07-13T13:18:50;7.20;;;4.85;;
55827;SDS011;41758;51.992;5.890;2023-07-13T13:21:17;6.82;;;4.80;;
55827;SDS011;41758;51.992;5.890;2023-07-13T13:23:44;6.22;;;4.43;;
55827;SDS011;41758;51.992;5.890;2023-07-13T13:26:12;5.40;;;4.10;;
55827;SDS011;41758;51.992;5.890;2023-07-13T13:28:41;6.57;;;5.03;;
55827;SDS011;41758;51.992;5.890;2023-07-13T13:31:09;7.45;;;5.00;;
55827;SDS011;41758;51.992;5.890;2023-07-13T13:33:40;7.72;;;4.88;;
55827;SDS011;41758;51.992;5.890;2023-07-13T13:36:13;8.13;;;4.97;;
55827;SDS011;41758;51.992;5.890;2023-07-13T13:38:43;6.82;;;5.10;;
55827;SDS011;41758;51.992;5.890;2023-07-13T13:41:10;7.00;;;4.45;;
55827;SDS011;41758;51.992;5.890;2023-07-13T13:43:38;6.30;;;4.63;;
55827;SDS011;41758;51.992;5.890;2023-07-13T13:46:09;5.95;;;3.92;;
55827;SDS011;41758;51.992;5.890;2023-07-13T13:48:43;9.68;;;4.78;;
55827;SDS011;41758;51.992;5.890;2023-07-13T13:51:18;6.65;;;4.07;;
55827;SDS011;41758;51.992;5.890;2023-07-13T13:53:47;5.45;;;3.50;;
55827;SDS011;41758;51.992;5.890;2023-07-13T13:56:13;5.03;;;3.40;;
55827;SDS011;41758;51.992;5.890;2023-07-13T13:58:40;5.47;;;3.20;;
55827;SDS011;41758;51.992;5.890;2023-07-13T14:01:16;5.05;;;3.60;;
55827;SDS011;41758;51.992;5.890;2023-07-13T14:03:45;4.50;;;3.10;;
55827;SDS011;41758;51.992;5.890;2023-07-13T14:06:13;5.18;;;3.45;;
55827;SDS011;41758;51.992;5.890;2023-07-13T14:08:41;5.82;;;3.42;;
55827;SDS011;41758;51.992;5.890;2023-07-13T14:11:09;6.93;;;3.30;;
55827;SDS011;41758;51.992;5.890;2023-07-13T14:13:43;7.00;;;3.80;;
55827;SDS011;41758;51.992;5.890;2023-07-13T14:16:18;6.40;;;3.80;;
55827;SDS011;41758;51.992;5.890;2023-07-13T14:18:46;5.05;;;3.40;;
55827;SDS011;41758;51.992;5.890;2023-07-13T14:21:13;4.78;;;3.30;;
55827;SDS011;41758;51.992;5.890;2023-07-13T14:23:45;5.03;;;2.87;;
55827;SDS011;41758;51.992;5.890;2023-07-13T14:26:22;6.13;;;3.60;;
55827;SDS011;41758;51.992;5.890;2023-07-13T14:28:51;5.57;;;3.50;;
55827;SDS011;41758;51.992;5.890;2023-07-13T14:31:19;5.45;;;3.63;;
55827;SDS011;41758;51.992;5.890;2023-07-13T14:33:45;5.30;;;3.80;;
55827;SDS011;41758;51.992;5.890;2023-07-13T14:36:32;5.50;;;3.38;;
55827;SDS011;41758;51.992;5.890;2023-07-13T14:39:14;5.13;;;3.53;;
55827;SDS011;41758;51.992;5.890;2023-07-13T14:41:42;5.85;;;3.50;;
55827;SDS011;41758;51.992;5.890;2023-07-13T14:44:15;5.57;;;3.10;;
55827;SDS011;41758;51.992;5.890;2023-07-13T14:46:42;5.40;;;3.17;;
55827;SDS011;41758;51.992;5.890;2023-07-13T14:49:24;5.82;;;3.20;;
55827;SDS011;41758;51.992;5.890;2023-07-13T14:52:11;4.28;;;2.63;;
55827;SDS011;41758;51.992;5.890;2023-07-13T14:54:40;4.78;;;2.90;;
55827;SDS011;41758;51.992;5.890;2023-07-13T14:57:12;4.78;;;2.83;;
55827;SDS011;41758;51.992;5.890;2023-07-13T14:59:40;4.80;;;3.10;;
55827;SDS011;41758;51.992;5.890;2023-07-13T15:02:52;5.30;;;3.00;;
55827;SDS011;41758;51.992;5.890;2023-07-13T15:04:59;6.05;;;3.33;;
55827;SDS011;41758;51.992;5.890;2023-07-13T15:07:26;5.25;;;3.00;;
55827;SDS011;41758;51.992;5.890;2023-07-13T15:09:52;4.70;;;3.10;;
55827;SDS011;41758;51.992;5.890;2023-07-13T15:12:18;5.05;;;3.10;;
55827;SDS011;41758;51.992;5.890;2023-07-13T15:14:45;5.28;;;3.35;;
55827;SDS011;41758;51.992;5.890;2023-07-13T15:19:58;5.95;;;3.13;;
55827;SDS011;41758;51.992;5.890;2023-07-13T15:22:24;4.65;;;3.10;;
55827;SDS011;41758;51.992;5.890;2023-07-13T15:24:50;5.40;;;3.17;;
55827;SDS011;41758;51.992;5.890;2023-07-13T15:27:16;5.75;;;3.28;;
55827;SDS011;41758;51.992;5.890;2023-07-13T15:29:42;4.28;;;2.72;;
55827;SDS011;41758;51.992;5.890;2023-07-13T15:32:11;4.15;;;2.80;;
55827;SDS011;41758;51.992;5.890;2023-07-13T15:34:40;5.65;;;3.10;;
55827;SDS011;41758;51.992;5.890;2023-07-13T15:37:12;4.93;;;3.00;;
55827;SDS011;41758;51.992;5.890;2023-07-13T15:39:40;4.72;;;2.78;;
55827;SDS011;41758;51.992;5.890;2023-07-13T15:42:08;4.60;;;2.90;;
55827;SDS011;41758;51.992;5.890;2023-07-13T15:44:42;4.43;;;2.72;;
55827;SDS011;41758;51.992;5.890;2023-07-13T15:47:12;4.68;;;2.67;;